9VBOQ1 WSSL-WSSL
Flight info
| Callsign | 9VBOQ1 |
|---|---|
| Flight time | 0h 52m |
| Altitude | 2000 |
| Route | SETHI DCT RECHI DCT LEGOL |
| Aircraft | C172/L-SFG/C |
Departure
| Time | 2026-05-09 12:19 |
|---|---|
| Airport | Seletar Airport (WSSL) |
Arrival
| Time | 2026-05-09 13:12 |
|---|---|
| Airport | Seletar Airport (WSSL) |
| Time | Latitude | Longitude | Altitude | Speed | Heading |
|---|---|---|---|---|---|
| 2026-05-09 11:54 | 1.41422 | 103.86844 | 35 ft | 0 kts | 34° |
| 2026-05-09 11:56 | 1.41443 | 103.86838 | 34 ft | 4 kts | 207° |
| 2026-05-09 11:56 | 1.41429 | 103.86830 | 35 ft | 0 kts | 208° |
| 2026-05-09 12:04 | 1.41412 | 103.86817 | 35 ft | 0 kts | 281° |
| 2026-05-09 12:05 | 1.41417 | 103.86809 | 35 ft | 6 kts | 310° |
| 2026-05-09 12:05 | 1.41440 | 103.86785 | 35 ft | 5 kts | 359° |
| 2026-05-09 12:05 | 1.41462 | 103.86805 | 34 ft | 5 kts | 40° |
| 2026-05-09 12:05 | 1.41500 | 103.86828 | 33 ft | 6 kts | 33° |
| 2026-05-09 12:06 | 1.41536 | 103.86851 | 33 ft | 6 kts | 30° |
| 2026-05-09 12:06 | 1.41564 | 103.86868 | 32 ft | 4 kts | 30° |
| 2026-05-09 12:06 | 1.41585 | 103.86880 | 32 ft | 3 kts | 31° |
| 2026-05-09 12:06 | 1.41603 | 103.86891 | 31 ft | 0 kts | 32° |
| 2026-05-09 12:08 | 1.41616 | 103.86901 | 31 ft | 10 kts | 37° |
| 2026-05-09 12:08 | 1.41705 | 103.86962 | 29 ft | 16 kts | 33° |
| 2026-05-09 12:08 | 1.41796 | 103.87021 | 27 ft | 15 kts | 34° |
| 2026-05-09 12:08 | 1.41878 | 103.87076 | 25 ft | 14 kts | 31° |
| 2026-05-09 12:09 | 1.41954 | 103.87126 | 24 ft | 12 kts | 33° |
| 2026-05-09 12:09 | 1.42022 | 103.87168 | 22 ft | 11 kts | 34° |
| 2026-05-09 12:09 | 1.42084 | 103.87211 | 21 ft | 10 kts | 34° |
| 2026-05-09 12:10 | 1.42155 | 103.87244 | 20 ft | 0 kts | 346° |
| 2026-05-09 12:13 | 1.42155 | 103.87243 | 20 ft | 2 kts | 342° |
| 2026-05-09 12:13 | 1.42178 | 103.87215 | 20 ft | 5 kts | 298° |
| 2026-05-09 12:14 | 1.42188 | 103.87195 | 20 ft | 0 kts | 297° |
| 2026-05-09 12:14 | 1.42188 | 103.87194 | 20 ft | 1 kts | 295° |
| 2026-05-09 12:14 | 1.42190 | 103.87192 | 20 ft | 0 kts | 297° |
| 2026-05-09 12:16 | 1.42194 | 103.87185 | 20 ft | 4 kts | 304° |
| 2026-05-09 12:16 | 1.42215 | 103.87156 | 20 ft | 5 kts | 301° |
| 2026-05-09 12:16 | 1.42227 | 103.87126 | 21 ft | 4 kts | 271° |
| 2026-05-09 12:16 | 1.42211 | 103.87104 | 21 ft | 4 kts | 218° |
| 2026-05-09 12:17 | 1.42199 | 103.87095 | 21 ft | 0 kts | 216° |
| 2026-05-09 12:18 | 1.42170 | 103.87076 | 22 ft | 22 kts | 211° |
| 2026-05-09 12:18 | 1.41910 | 103.86906 | 27 ft | 66 kts | 213° |
| 2026-05-09 12:19 | 1.41475 | 103.86625 | 149 ft | 78 kts | 211° |
| 2026-05-09 12:19 | 1.40985 | 103.86317 | 307 ft | 83 kts | 210° |
| 2026-05-09 12:19 | 1.40540 | 103.85975 | 505 ft | 82 kts | 236° |
| 2026-05-09 12:19 | 1.40318 | 103.85477 | 726 ft | 77 kts | 236° |
| 2026-05-09 12:20 | 1.39986 | 103.85100 | 938 ft | 68 kts | 224° |
| 2026-05-09 12:20 | 1.39621 | 103.84751 | 949 ft | 88 kts | 220° |
| 2026-05-09 12:20 | 1.39045 | 103.84249 | 836 ft | 115 kts | 220° |
| 2026-05-09 12:20 | 1.38441 | 103.83735 | 937 ft | 113 kts | 218° |
| 2026-05-09 12:21 | 1.37706 | 103.83649 | 1012 ft | 113 kts | 161° |
| 2026-05-09 12:21 | 1.36993 | 103.83504 | 1011 ft | 107 kts | 224° |
| 2026-05-09 12:21 | 1.36498 | 103.82981 | 1012 ft | 101 kts | 224° |
| 2026-05-09 12:21 | 1.36016 | 103.82485 | 1010 ft | 101 kts | 225° |
| 2026-05-09 12:22 | 1.35498 | 103.81939 | 1014 ft | 113 kts | 231° |
| 2026-05-09 12:22 | 1.35175 | 103.81212 | 1088 ft | 114 kts | 251° |
| 2026-05-09 12:22 | 1.35240 | 103.80439 | 1178 ft | 109 kts | 291° |
| 2026-05-09 12:22 | 1.35664 | 103.79885 | 1268 ft | 92 kts | 307° |
| 2026-05-09 12:23 | 1.36071 | 103.79392 | 1377 ft | 94 kts | 308° |
| 2026-05-09 12:23 | 1.36494 | 103.78884 | 1533 ft | 96 kts | 307° |
| 2026-05-09 12:23 | 1.36930 | 103.78358 | 1705 ft | 99 kts | 307° |
| 2026-05-09 12:23 | 1.37478 | 103.77958 | 1867 ft | 98 kts | 327° |
| 2026-05-09 12:24 | 1.38062 | 103.77593 | 2038 ft | 100 kts | 326° |
| 2026-05-09 12:24 | 1.38667 | 103.77248 | 2198 ft | 101 kts | 343° |
| 2026-05-09 12:24 | 1.39346 | 103.77328 | 2362 ft | 99 kts | 29° |
| 2026-05-09 12:24 | 1.39807 | 103.77793 | 2514 ft | 96 kts | 78° |
| 2026-05-09 12:25 | 1.39757 | 103.78432 | 2678 ft | 93 kts | 95° |
| 2026-05-09 12:25 | 1.39700 | 103.79079 | 2849 ft | 92 kts | 96° |
| 2026-05-09 12:25 | 1.39637 | 103.79706 | 3008 ft | 91 kts | 96° |
| 2026-05-09 12:25 | 1.39484 | 103.80304 | 3162 ft | 90 kts | 135° |
| 2026-05-09 12:26 | 1.38978 | 103.80639 | 3327 ft | 86 kts | 144° |
| 2026-05-09 12:26 | 1.38486 | 103.80976 | 3491 ft | 85 kts | 146° |
| 2026-05-09 12:26 | 1.37999 | 103.81302 | 3648 ft | 83 kts | 153° |
| 2026-05-09 12:26 | 1.37539 | 103.81126 | 3794 ft | 77 kts | 240° |
| 2026-05-09 12:27 | 1.37223 | 103.80675 | 3907 ft | 82 kts | 234° |
| 2026-05-09 12:27 | 1.36878 | 103.80195 | 4014 ft | 88 kts | 234° |
| 2026-05-09 12:27 | 1.36512 | 103.79689 | 4125 ft | 92 kts | 234° |
| 2026-05-09 12:27 | 1.36137 | 103.79152 | 4224 ft | 95 kts | 244° |
| 2026-05-09 12:28 | 1.36299 | 103.78558 | 4314 ft | 97 kts | 316° |
| 2026-05-09 12:28 | 1.36805 | 103.78066 | 4339 ft | 105 kts | 313° |
| 2026-05-09 12:28 | 1.37334 | 103.77536 | 4341 ft | 110 kts | 314° |
| 2026-05-09 12:28 | 1.37880 | 103.76989 | 4341 ft | 112 kts | 314° |
| 2026-05-09 12:29 | 1.38527 | 103.76585 | 4330 ft | 114 kts | 355° |
| 2026-05-09 12:29 | 1.39279 | 103.76786 | 4322 ft | 116 kts | 41° |
| 2026-05-09 12:29 | 1.39683 | 103.77467 | 4394 ft | 112 kts | 61° |
| 2026-05-09 12:29 | 1.39890 | 103.78172 | 4474 ft | 107 kts | 104° |
| 2026-05-09 12:30 | 1.39627 | 103.78848 | 4570 ft | 103 kts | 110° |
| 2026-05-09 12:30 | 1.39376 | 103.79510 | 4663 ft | 101 kts | 111° |
| 2026-05-09 12:30 | 1.39361 | 103.80789 | 4844 ft | 95 kts | 61° |
| 2026-05-09 12:31 | 1.39653 | 103.81383 | 4938 ft | 95 kts | 62° |
| 2026-05-09 12:31 | 1.40484 | 103.82318 | 5113 ft | 89 kts | 37° |
| 2026-05-09 12:31 | 1.40964 | 103.82700 | 5200 ft | 86 kts | 26° |
| 2026-05-09 12:32 | 1.41512 | 103.82643 | 5297 ft | 80 kts | 336° |
| 2026-05-09 12:32 | 1.41922 | 103.82335 | 5386 ft | 74 kts | 284° |
| 2026-05-09 12:32 | 1.41972 | 103.81855 | 5470 ft | 67 kts | 257° |
| 2026-05-09 12:32 | 1.41907 | 103.81413 | 5541 ft | 61 kts | 261° |
| 2026-05-09 12:33 | 1.41854 | 103.81030 | 5573 ft | 53 kts | 262° |
| 2026-05-09 12:33 | 1.41806 | 103.80641 | 5543 ft | 58 kts | 262° |
| 2026-05-09 12:33 | 1.41754 | 103.80241 | 5541 ft | 58 kts | 261° |
| 2026-05-09 12:33 | 1.41700 | 103.79818 | 5558 ft | 65 kts | 262° |
| 2026-05-09 12:34 | 1.41636 | 103.79336 | 5564 ft | 78 kts | 262° |
| 2026-05-09 12:34 | 1.41558 | 103.78749 | 5567 ft | 92 kts | 263° |
| 2026-05-09 12:34 | 1.41466 | 103.78075 | 5566 ft | 103 kts | 263° |
| 2026-05-09 12:34 | 1.41132 | 103.77438 | 5562 ft | 111 kts | 209° |
| 2026-05-09 12:35 | 1.40403 | 103.77177 | 5563 ft | 115 kts | 201° |
| 2026-05-09 12:35 | 1.39649 | 103.76906 | 5540 ft | 110 kts | 200° |
| 2026-05-09 12:35 | 1.39124 | 103.76708 | 5567 ft | 39 kts | 217° |
| 2026-05-09 12:35 | 1.38667 | 103.76293 | 5048 ft | 104 kts | 207° |
| 2026-05-09 12:36 | 1.38387 | 103.76549 | 5076 ft | 94 kts | 3° |
| 2026-05-09 12:36 | 1.38296 | 103.76320 | 5124 ft | 83 kts | 171° |
| 2026-05-09 12:36 | 1.37713 | 103.76374 | 5205 ft | 87 kts | 176° |
| 2026-05-09 12:36 | 1.37104 | 103.76448 | 5304 ft | 91 kts | 165° |
| 2026-05-09 12:37 | 1.36509 | 103.76733 | 5348 ft | 97 kts | 138° |
| 2026-05-09 12:37 | 1.36280 | 103.77359 | 5427 ft | 98 kts | 102° |
| 2026-05-09 12:37 | 1.36105 | 103.78023 | 5518 ft | 100 kts | 103° |
| 2026-05-09 12:37 | 1.35923 | 103.78725 | 5548 ft | 107 kts | 103° |
| 2026-05-09 12:38 | 1.35739 | 103.79443 | 5631 ft | 107 kts | 103° |
| 2026-05-09 12:38 | 1.35603 | 103.80164 | 5701 ft | 105 kts | 79° |
| 2026-05-09 12:38 | 1.36064 | 103.80673 | 5773 ft | 101 kts | 32° |
| 2026-05-09 12:38 | 1.36634 | 103.81093 | 5854 ft | 102 kts | 35° |
| 2026-05-09 12:39 | 1.37205 | 103.81515 | 5925 ft | 102 kts | 35° |
| 2026-05-09 12:39 | 1.37774 | 103.81938 | 6000 ft | 102 kts | 34° |
| 2026-05-09 12:39 | 1.38340 | 103.82358 | 6070 ft | 101 kts | 34° |
| 2026-05-09 12:39 | 1.38905 | 103.82778 | 6145 ft | 101 kts | 35° |
| 2026-05-09 12:40 | 1.39493 | 103.83134 | 6211 ft | 98 kts | 5° |
| 2026-05-09 12:40 | 1.40113 | 103.82923 | 6282 ft | 95 kts | 335° |
| 2026-05-09 12:40 | 1.40718 | 103.82664 | 6353 ft | 95 kts | 336° |
| 2026-05-09 12:40 | 1.41246 | 103.82309 | 6416 ft | 93 kts | 296° |
| 2026-05-09 12:41 | 1.41488 | 103.81720 | 6481 ft | 92 kts | 294° |
| 2026-05-09 12:41 | 1.41742 | 103.81136 | 6551 ft | 91 kts | 294° |
| 2026-05-09 12:41 | 1.41964 | 103.80551 | 6613 ft | 90 kts | 274° |
| 2026-05-09 12:41 | 1.41739 | 103.79969 | 6641 ft | 94 kts | 247° |
| 2026-05-09 12:42 | 1.41468 | 103.79354 | 6649 ft | 100 kts | 247° |
| 2026-05-09 12:42 | 1.41180 | 103.78706 | 6646 ft | 104 kts | 247° |
| 2026-05-09 12:42 | 1.40884 | 103.78040 | 6651 ft | 108 kts | 247° |
| 2026-05-09 12:42 | 1.40576 | 103.77347 | 6648 ft | 110 kts | 247° |
| 2026-05-09 12:43 | 1.40108 | 103.76769 | 6648 ft | 112 kts | 199° |
| 2026-05-09 12:43 | 1.39330 | 103.76760 | 6645 ft | 113 kts | 178° |
| 2026-05-09 12:43 | 1.38554 | 103.76781 | 6691 ft | 110 kts | 178° |
| 2026-05-09 12:43 | 1.37799 | 103.76803 | 6733 ft | 108 kts | 178° |
| 2026-05-09 12:44 | 1.37052 | 103.76824 | 6777 ft | 106 kts | 178° |
| 2026-05-09 12:44 | 1.36316 | 103.76843 | 6821 ft | 105 kts | 178° |
| 2026-05-09 12:44 | 1.35604 | 103.76939 | 6859 ft | 103 kts | 147° |
| 2026-05-09 12:44 | 1.35225 | 103.77511 | 6904 ft | 98 kts | 116° |
| 2026-05-09 12:45 | 1.34896 | 103.78106 | 6946 ft | 97 kts | 117° |
| 2026-05-09 12:45 | 1.34873 | 103.78728 | 6990 ft | 91 kts | 67° |
| 2026-05-09 12:45 | 1.35059 | 103.79333 | 7032 ft | 91 kts | 71° |
| 2026-05-09 12:45 | 1.35239 | 103.79937 | 7077 ft | 91 kts | 71° |
| 2026-05-09 12:46 | 1.35417 | 103.80537 | 7124 ft | 90 kts | 71° |
| 2026-05-09 12:46 | 1.35534 | 103.80931 | 7150 ft | 89 kts | 71° |
| 2026-05-09 12:46 | 1.35937 | 103.81587 | 7212 ft | 83 kts | 21° |
| 2026-05-09 12:46 | 1.36452 | 103.81848 | 7253 ft | 83 kts | 26° |
| 2026-05-09 12:47 | 1.36959 | 103.82114 | 7297 ft | 82 kts | 26° |
| 2026-05-09 12:47 | 1.37458 | 103.82376 | 7339 ft | 80 kts | 26° |
| 2026-05-09 12:47 | 1.37947 | 103.82632 | 7381 ft | 79 kts | 26° |
| 2026-05-09 12:47 | 1.38427 | 103.82883 | 7424 ft | 77 kts | 26° |
| 2026-05-09 12:48 | 1.38864 | 103.82800 | 7465 ft | 71 kts | 292° |
| 2026-05-09 12:48 | 1.39069 | 103.82373 | 7490 ft | 66 kts | 298° |
| 2026-05-09 12:48 | 1.39268 | 103.81981 | 7518 ft | 60 kts | 297° |
| 2026-05-09 12:48 | 1.39449 | 103.81630 | 7495 ft | 55 kts | 298° |
| 2026-05-09 12:49 | 1.39565 | 103.81414 | 7462 ft | 51 kts | 313° |
| 2026-05-09 12:49 | 1.39616 | 103.81309 | 4282 ft | 27 kts | 15° |
| 2026-05-09 12:49 | 1.39550 | 103.81293 | 2128 ft | 57 kts | 205° |
| 2026-05-09 12:49 | 1.39165 | 103.81073 | 2185 ft | 47 kts | 203° |
| 2026-05-09 12:50 | 1.38814 | 103.80955 | 2152 ft | 69 kts | 198° |
| 2026-05-09 12:50 | 1.38369 | 103.80783 | 2286 ft | 70 kts | 198° |
| 2026-05-09 12:50 | 1.37840 | 103.80692 | 2316 ft | 88 kts | 169° |
| 2026-05-09 12:50 | 1.37182 | 103.80805 | 2313 ft | 104 kts | 195° |
| 2026-05-09 12:51 | 1.36826 | 103.80494 | 2359 ft | 109 kts | 245° |
| 2026-05-09 12:51 | 1.36974 | 103.79770 | 2429 ft | 113 kts | 301° |
| 2026-05-09 12:51 | 1.37385 | 103.79093 | 2504 ft | 115 kts | 299° |
| 2026-05-09 12:51 | 1.37795 | 103.78401 | 2572 ft | 117 kts | 299° |
| 2026-05-09 12:52 | 1.38284 | 103.77773 | 2654 ft | 116 kts | 330° |
| 2026-05-09 12:52 | 1.39078 | 103.77679 | 2748 ft | 115 kts | 357° |
| 2026-05-09 12:52 | 1.39878 | 103.77641 | 2846 ft | 115 kts | 356° |
| 2026-05-09 12:52 | 1.40646 | 103.77762 | 2932 ft | 114 kts | 35° |
| 2026-05-09 12:53 | 1.41105 | 103.78394 | 3027 ft | 114 kts | 61° |
| 2026-05-09 12:53 | 1.41428 | 103.79108 | 3114 ft | 113 kts | 86° |
| 2026-05-09 12:53 | 1.41064 | 103.79755 | 3192 ft | 110 kts | 150° |
| 2026-05-09 12:53 | 1.40388 | 103.80110 | 3294 ft | 110 kts | 152° |
| 2026-05-09 12:54 | 1.39711 | 103.80476 | 3392 ft | 111 kts | 153° |
| 2026-05-09 12:54 | 1.39029 | 103.80842 | 3483 ft | 111 kts | 153° |
| 2026-05-09 12:54 | 1.38344 | 103.81208 | 3582 ft | 112 kts | 153° |
| 2026-05-09 12:54 | 1.37658 | 103.81575 | 3678 ft | 112 kts | 153° |
| 2026-05-09 12:55 | 1.36970 | 103.81944 | 3776 ft | 112 kts | 153° |
| 2026-05-09 12:55 | 1.36283 | 103.82313 | 3873 ft | 112 kts | 153° |
| 2026-05-09 12:55 | 1.35554 | 103.82411 | 3949 ft | 109 kts | 206° |
| 2026-05-09 12:55 | 1.35190 | 103.81792 | 4041 ft | 106 kts | 256° |
| 2026-05-09 12:56 | 1.34989 | 103.81080 | 4141 ft | 108 kts | 254° |
| 2026-05-09 12:56 | 1.34781 | 103.80346 | 4188 ft | 111 kts | 254° |
| 2026-05-09 12:56 | 1.34568 | 103.79594 | 4244 ft | 113 kts | 254° |
| 2026-05-09 12:56 | 1.34353 | 103.78835 | 4300 ft | 114 kts | 254° |
| 2026-05-09 12:57 | 1.34139 | 103.78073 | 4349 ft | 113 kts | 257° |
| 2026-05-09 12:57 | 1.34348 | 103.77340 | 4384 ft | 113 kts | 300° |
| 2026-05-09 12:57 | 1.34741 | 103.76657 | 4440 ft | 114 kts | 298° |
| 2026-05-09 12:57 | 1.35132 | 103.75968 | 4501 ft | 112 kts | 298° |
| 2026-05-09 12:58 | 1.35754 | 103.75590 | 4587 ft | 111 kts | 359° |
| 2026-05-09 12:58 | 1.36520 | 103.75636 | 4681 ft | 110 kts | 0° |
| 2026-05-09 12:58 | 1.37286 | 103.75669 | 4773 ft | 110 kts | 0° |
| 2026-05-09 12:58 | 1.38045 | 103.75706 | 4866 ft | 109 kts | 0° |
| 2026-05-09 12:59 | 1.38799 | 103.75743 | 4961 ft | 108 kts | 1° |
| 2026-05-09 12:59 | 1.39543 | 103.75815 | 5048 ft | 108 kts | 20° |
| 2026-05-09 12:59 | 1.40005 | 103.76375 | 5132 ft | 109 kts | 71° |
| 2026-05-09 12:59 | 1.40041 | 103.77124 | 5225 ft | 108 kts | 88° |
| 2026-05-09 13:00 | 1.40058 | 103.77888 | 5320 ft | 108 kts | 88° |
| 2026-05-09 13:00 | 1.40071 | 103.78626 | 5417 ft | 107 kts | 88° |
| 2026-05-09 13:00 | 1.40083 | 103.79368 | 5511 ft | 106 kts | 88° |
| 2026-05-09 13:00 | 1.40093 | 103.80104 | 5606 ft | 105 kts | 88° |
| 2026-05-09 13:01 | 1.40101 | 103.80832 | 5699 ft | 105 kts | 88° |
| 2026-05-09 13:01 | 1.40105 | 103.81556 | 5797 ft | 103 kts | 88° |
| 2026-05-09 13:01 | 1.39743 | 103.82107 | 5861 ft | 101 kts | 163° |
| 2026-05-09 13:01 | 1.39065 | 103.82270 | 5968 ft | 100 kts | 165° |
| 2026-05-09 13:02 | 1.38398 | 103.82440 | 6063 ft | 99 kts | 166° |
| 2026-05-09 13:02 | 1.37736 | 103.82606 | 6162 ft | 97 kts | 166° |
| 2026-05-09 13:02 | 1.37082 | 103.82770 | 6248 ft | 96 kts | 166° |
| 2026-05-09 13:02 | 1.36483 | 103.82637 | 6323 ft | 92 kts | 222° |
| 2026-05-09 13:03 | 1.35954 | 103.82229 | 6329 ft | 100 kts | 218° |
| 2026-05-09 13:03 | 1.35380 | 103.81795 | 6336 ft | 107 kts | 219° |
| 2026-05-09 13:03 | 1.34779 | 103.81339 | 6337 ft | 110 kts | 219° |
| 2026-05-09 13:03 | 1.34226 | 103.80813 | 6335 ft | 110 kts | 249° |
| 2026-05-09 13:04 | 1.34140 | 103.80064 | 6364 ft | 109 kts | 267° |
| 2026-05-09 13:04 | 1.34192 | 103.79323 | 6357 ft | 108 kts | 301° |
| 2026-05-09 13:04 | 1.34630 | 103.78733 | 6374 ft | 103 kts | 287° |
| 2026-05-09 13:04 | 1.35116 | 103.78226 | 6376 ft | 102 kts | 324° |
| 2026-05-09 13:05 | 1.35699 | 103.77860 | 6205 ft | 102 kts | 332° |
| 2026-05-09 13:05 | 1.36309 | 103.77625 | 6131 ft | 81 kts | 345° |
| 2026-05-09 13:05 | 1.36783 | 103.77548 | 6029 ft | 61 kts | 357° |
| 2026-05-09 13:05 | 1.37216 | 103.77568 | 5826 ft | 62 kts | 2° |
| 2026-05-09 13:06 | 1.37628 | 103.77627 | 5653 ft | 65 kts | 6° |
| 2026-05-09 13:06 | 1.38216 | 103.77722 | 5500 ft | 96 kts | 5° |
| 2026-05-09 13:06 | 1.38819 | 103.77776 | 5695 ft | 86 kts | 15° |
| 2026-05-09 13:06 | 1.39291 | 103.78121 | 5838 ft | 84 kts | 45° |
| 2026-05-09 13:07 | 1.39664 | 103.78720 | 5640 ft | 116 kts | 69° |
| 2026-05-09 13:07 | 1.39701 | 103.79518 | 5683 ft | 116 kts | 105° |
| 2026-05-09 13:07 | 1.39334 | 103.80212 | 5783 ft | 111 kts | 122° |
| 2026-05-09 13:07 | 1.38963 | 103.80888 | 5831 ft | 112 kts | 113° |
| 2026-05-09 13:08 | 1.38553 | 103.81592 | 5359 ft | 128 kts | 123° |
| 2026-05-09 13:08 | 1.38404 | 103.82392 | 5185 ft | 115 kts | 73° |
| 2026-05-09 13:08 | 1.38851 | 103.83046 | 4922 ft | 113 kts | 40° |
| 2026-05-09 13:08 | 1.39459 | 103.83593 | 4458 ft | 120 kts | 42° |
| 2026-05-09 13:09 | 1.40074 | 103.84115 | 4108 ft | 113 kts | 39° |
| 2026-05-09 13:09 | 1.40661 | 103.84624 | 3729 ft | 110 kts | 31° |
| 2026-05-09 13:09 | 1.41303 | 103.84983 | 3416 ft | 104 kts | 18° |
| 2026-05-09 13:09 | 1.42012 | 103.85157 | 3058 ft | 107 kts | 14° |
| 2026-05-09 13:10 | 1.42706 | 103.85394 | 2671 ft | 101 kts | 27° |
| 2026-05-09 13:10 | 1.43137 | 103.85894 | 2381 ft | 90 kts | 60° |
| 2026-05-09 13:10 | 1.43551 | 103.86366 | 2020 ft | 101 kts | 24° |
| 2026-05-09 13:10 | 1.44221 | 103.86567 | 1591 ft | 101 kts | 32° |
| 2026-05-09 13:11 | 1.44441 | 103.87193 | 1076 ft | 103 kts | 107° |
| 2026-05-09 13:11 | 1.44069 | 103.87627 | 831 ft | 82 kts | 163° |
| 2026-05-09 13:11 | 1.43536 | 103.87761 | 512 ft | 77 kts | 179° |
| 2026-05-09 13:11 | 1.43048 | 103.87606 | 258 ft | 70 kts | 207° |
| 2026-05-09 13:12 | 1.42663 | 103.87375 | 136 ft | 62 kts | 210° |
| 2026-05-09 13:12 | 1.42324 | 103.87155 | 58 ft | 53 kts | 210° |
| 2026-05-09 13:12 | 1.42040 | 103.86983 | 24 ft | 39 kts | 211° |
| 2026-05-09 13:12 | 1.41877 | 103.86884 | 27 ft | 17 kts | 214° |
| 2026-05-09 13:13 | 1.41792 | 103.86830 | 29 ft | 12 kts | 215° |
| 2026-05-09 13:13 | 1.41728 | 103.86805 | 30 ft | 8 kts | 171° |
| 2026-05-09 13:13 | 1.41695 | 103.86837 | 30 ft | 6 kts | 120° |
| 2026-05-09 13:13 | 1.41672 | 103.86870 | 30 ft | 6 kts | 129° |
| 2026-05-09 13:14 | 1.41648 | 103.86905 | 30 ft | 6 kts | 129° |
| 2026-05-09 13:14 | 1.41612 | 103.86899 | 31 ft | 5 kts | 212° |
| 2026-05-09 13:16 | 1.41418 | 103.86875 | 34 ft | 0 kts | 231° |
| 2026-05-09 13:16 | 1.41416 | 103.86871 | 34 ft | 1 kts | 251° |
| 2026-05-09 13:16 | 1.41412 | 103.86863 | 35 ft | 2 kts | 229° |
| 2026-05-09 13:16 | 1.41409 | 103.86861 | 35 ft | 0 kts | 218° |